createdAt,value
2022-10-02T00:01:33.798Z,98276.66
2022-10-02T00:04:07.881Z,98279.91
2022-10-02T00:06:45.589Z,98300.41
2022-10-02T00:09:26.356Z,98294.44
2022-10-02T00:12:00.105Z,98278.41
2022-10-02T00:14:38.440Z,98278.09
2022-10-02T00:17:11.506Z,98292.19
2022-10-02T00:19:40.676Z,98302.59
2022-10-02T00:22:30.648Z,98297.00
2022-10-02T00:25:09.638Z,98295.00
2022-10-02T00:27:50.795Z,98299.41
2022-10-02T00:30:21.418Z,98309.41
2022-10-02T00:33:08.457Z,98303.41
2022-10-02T00:35:57.082Z,98304.16
2022-10-02T00:38:42.641Z,98308.97
2022-10-02T00:42:22.934Z,98302.94
2022-10-02T00:45:21.149Z,98310.53
2022-10-02T00:47:59.219Z,98291.38
2022-10-02T00:50:39.877Z,98297.41
2022-10-02T00:53:23.722Z,98305.81
2022-10-02T00:56:05.556Z,98296.19
2022-10-02T00:59:04.594Z,98299.34
2022-10-02T01:01:42.616Z,98308.91
2022-10-02T01:04:19.402Z,98306.53
2022-10-02T01:06:48.618Z,98311.28
2022-10-02T01:09:18.154Z,98310.47
2022-10-02T01:11:47.613Z,98308.09
2022-10-02T01:14:17.040Z,98312.88
2022-10-02T01:16:46.953Z,98312.88
2022-10-02T01:19:27.729Z,98313.66
2022-10-02T01:22:06.228Z,98320.84
2022-10-02T01:24:45.113Z,98307.97
2022-10-02T01:27:14.189Z,98308.63
2022-10-02T01:29:45.588Z,98313.00
2022-10-02T01:32:14.748Z,98327.06
2022-10-02T01:34:44.241Z,98324.13
2022-10-02T01:37:14.661Z,98339.06
2022-10-02T01:39:45.894Z,98336.16
2022-10-02T01:42:15.606Z,98329.78
2022-10-02T01:44:45.886Z,98339.75
2022-10-02T01:47:20.869Z,98345.72
2022-10-02T01:50:10.900Z,98354.03
2022-10-02T01:52:50.959Z,98339.84
2022-10-02T01:55:34.815Z,98334.78
2022-10-02T01:58:22.831Z,98329.72
2022-10-02T02:01:02.568Z,98324.00
2022-10-02T02:03:43.510Z,98332.47
2022-10-02T02:06:22.852Z,98329.97
2022-10-02T02:09:09.208Z,98352.34
2022-10-02T02:11:46.017Z,98347.75
2022-10-02T02:14:20.848Z,98335.41
2022-10-02T02:16:55.707Z,98332.19
2022-10-02T02:19:31.570Z,98341.13
2022-10-02T02:22:05.493Z,98333.88
2022-10-02T02:24:40.533Z,98333.88
2022-10-02T02:27:17.025Z,98355.41
2022-10-02T02:29:50.586Z,98361.34
2022-10-02T02:32:26.157Z,98360.16
2022-10-02T02:35:01.870Z,98369.25
2022-10-02T02:37:36.027Z,98366.16
2022-10-02T02:40:09.551Z,98357.13
2022-10-02T02:42:44.769Z,98366.06
2022-10-02T02:45:19.346Z,98369.22
2022-10-02T02:47:52.817Z,98380.22
2022-10-02T02:50:27.911Z,98378.66
2022-10-02T02:53:03.279Z,98386.84
2022-10-02T02:55:39.254Z,98387.94
2022-10-02T02:58:18.514Z,98377.94
2022-10-02T03:00:47.866Z,98387.69
2022-10-02T03:03:17.058Z,98389.03
2022-10-02T03:05:51.097Z,98386.34
2022-10-02T03:08:27.294Z,98393.19
2022-10-02T03:11:12.162Z,98406.84
2022-10-02T03:13:57.780Z,98416.09
2022-10-02T03:16:43.568Z,98408.06
2022-10-02T03:19:31.516Z,98408.91
2022-10-02T03:22:08.453Z,98412.16
2022-10-02T03:24:47.092Z,98417.03
2022-10-02T03:27:25.236Z,98420.63
2022-10-02T03:30:01.097Z,98411.03
2022-10-02T03:32:32.241Z,98421.06
2022-10-02T03:35:02.884Z,98419.47
2022-10-02T03:37:33.437Z,98433.94
2022-10-02T03:40:04.347Z,98441.16
2022-10-02T03:42:36.238Z,98448.75
2022-10-02T03:45:08.442Z,98439.16
2022-10-02T03:47:37.516Z,98450.00
2022-10-02T03:50:07.825Z,98449.97
2022-10-02T03:52:37.171Z,98461.22
2022-10-02T03:55:22.382Z,98458.00
2022-10-02T03:57:52.484Z,98475.59
2022-10-02T04:00:31.914Z,98482.00
2022-10-02T04:03:04.281Z,98477.19
2022-10-02T04:05:42.357Z,98477.59
2022-10-02T04:08:18.366Z,98491.59
2022-10-02T04:10:53.894Z,98482.38
2022-10-02T04:13:28.638Z,98481.97
2022-10-02T04:16:07.964Z,98493.94
2022-10-02T04:18:43.451Z,98497.53
2022-10-02T04:21:23.913Z,98498.72
2022-10-02T04:23:59.457Z,98495.53
2022-10-02T04:26:36.084Z,98497.91
2022-10-02T04:29:15.534Z,98503.16
2022-10-02T04:31:50.701Z,98506.72
2022-10-02T04:34:19.861Z,98524.25
2022-10-02T04:37:11.887Z,98539.47
2022-10-02T04:39:59.414Z,98534.63
2022-10-02T04:42:44.012Z,98527.44
2022-10-02T04:45:41.351Z,98511.47
2022-10-02T04:48:41.279Z,98514.66
2022-10-02T04:51:28.252Z,98505.06
2022-10-02T04:54:26.636Z,98530.72
2022-10-02T04:57:15.623Z,98540.34
2022-10-02T05:00:02.178Z,98551.56
2022-10-02T05:02:46.917Z,98565.41
2022-10-02T05:05:26.663Z,98545.00
2022-10-02T05:08:25.012Z,98552.63
2022-10-02T05:11:16.920Z,98549.50
2022-10-02T05:14:05.619Z,98542.72
2022-10-02T05:16:56.887Z,98541.50
2022-10-02T05:20:04.816Z,98549.03
2022-10-02T05:23:05.709Z,98552.25
2022-10-02T05:26:20.845Z,98548.28
2022-10-02T05:29:13.043Z,98557.16
2022-10-02T05:32:00.053Z,98570.00
2022-10-02T05:34:50.507Z,98561.19
2022-10-02T05:37:35.832Z,98566.81
2022-10-02T05:40:18.548Z,98570.41
2022-10-02T05:42:56.078Z,98582.81
2022-10-02T05:45:32.124Z,98586.03
2022-10-02T05:48:09.715Z,98590.84
2022-10-02T05:50:39.807Z,98588.84
2022-10-02T05:53:20.203Z,98596.53
2022-10-02T05:55:57.611Z,98613.00
2022-10-02T05:58:28.546Z,98615.81
2022-10-02T06:01:06.268Z,98618.22
2022-10-02T06:03:43.591Z,98613.75
2022-10-02T06:06:19.590Z,98615.00
2022-10-02T06:08:54.795Z,98610.16
2022-10-02T06:11:32.683Z,98594.91
2022-10-02T06:14:13.662Z,98594.91
2022-10-02T06:16:52.978Z,98596.53
2022-10-02T06:19:28.638Z,98592.16
2022-10-02T06:22:06.495Z,98603.72
2022-10-02T06:24:43.476Z,98607.75
2022-10-02T06:27:22.592Z,98613.31
2022-10-02T06:29:59.613Z,98624.13
2022-10-02T06:32:38.112Z,98631.72
2022-10-02T06:35:14.193Z,98617.31
2022-10-02T06:37:59.994Z,98622.91
2022-10-02T06:40:51.697Z,98628.91
2022-10-02T06:43:54.244Z,98640.09
2022-10-02T06:46:35.455Z,98636.50
2022-10-02T06:49:16.977Z,98642.81
2022-10-02T06:52:02.677Z,98641.88
2022-10-02T06:54:49.920Z,98649.38
2022-10-02T06:57:48.610Z,98653.59
2022-10-02T07:00:22.445Z,98644.56
2022-10-02T07:03:45.241Z,98657.25
2022-10-02T07:06:24.865Z,98647.44
2022-10-02T07:09:23.091Z,98648.47
2022-10-02T07:12:04.371Z,98644.66
2022-10-02T07:14:57.468Z,98647.56
2022-10-02T07:17:43.930Z,98636.50
2022-10-02T07:20:30.204Z,98642.75
2022-10-02T07:23:19.667Z,98645.34
2022-10-02T07:26:31.372Z,98638.16
2022-10-02T07:29:14.630Z,98635.91
2022-10-02T07:31:58.481Z,98648.81
2022-10-02T07:34:41.389Z,98661.59
2022-10-02T07:37:24.794Z,98657.59
2022-10-02T07:40:17.868Z,98656.66
2022-10-02T07:43:07.950Z,98651.06
2022-10-02T07:45:42.203Z,98659.78
2022-10-02T07:48:38.601Z,98666.72
2022-10-02T07:51:43.267Z,98666.44
2022-10-02T07:54:40.079Z,98674.56
2022-10-02T07:57:35.475Z,98674.63
2022-10-02T08:00:13.057Z,98672.97
2022-10-02T08:02:48.630Z,98669.97
2022-10-02T08:05:25.778Z,98661.66
2022-10-02T08:08:13.308Z,98671.50
2022-10-02T08:10:48.498Z,98664.19
2022-10-02T08:13:22.280Z,98650.41
2022-10-02T08:15:56.637Z,98648.22
2022-10-02T08:18:35.618Z,98650.22
2022-10-02T08:21:12.533Z,98638.25
2022-10-02T08:23:48.467Z,98634.09
2022-10-02T08:26:23.078Z,98629.97
2022-10-02T08:29:00.237Z,98629.09
2022-10-02T08:31:29.522Z,98634.03
2022-10-02T08:33:58.777Z,98630.84
2022-10-02T08:37:03.460Z,98609.06
2022-10-02T08:40:04.409Z,98625.28
2022-10-02T08:43:26.100Z,98622.75
2022-10-02T08:46:47.293Z,98611.75
2022-10-02T08:49:56.790Z,98613.88
2022-10-02T08:53:27.015Z,98609.00
2022-10-02T08:56:41.125Z,98619.31
2022-10-02T08:59:52.716Z,98600.69
2022-10-02T09:03:24.786Z,98608.34
2022-10-02T09:06:55.452Z,98611.94
2022-10-02T09:10:20.888Z,98611.13
2022-10-02T09:13:22.872Z,98607.22
2022-10-02T09:16:07.246Z,98595.69
2022-10-02T09:18:55.587Z,98592.19
2022-10-02T09:21:52.988Z,98598.09
2022-10-02T09:24:59.372Z,98605.22
2022-10-02T09:28:06.438Z,98603.22
2022-10-02T09:31:26.616Z,98599.75
2022-10-02T09:34:33.023Z,98608.03
2022-10-02T09:37:46.546Z,98597.44
2022-10-02T09:41:06.972Z,98598.94
2022-10-02T09:45:01.400Z,98592.94
2022-10-02T09:48:45.454Z,98602.63
2022-10-02T09:52:23.757Z,98598.06
2022-10-02T09:55:45.637Z,98598.22
2022-10-02T09:59:19.129Z,98602.38
2022-10-02T10:02:23.349Z,98602.22
2022-10-02T10:05:19.452Z,98601.25
2022-10-02T10:08:22.349Z,98599.66
2022-10-02T10:11:14.322Z,98600.31
2022-10-02T10:14:13.060Z,98599.69
2022-10-02T10:17:39.223Z,98597.00
2022-10-02T10:20:55.572Z,98595.91
2022-10-02T10:24:01.061Z,98597.00
2022-10-02T10:27:11.788Z,98593.41
2022-10-02T10:30:25.946Z,98590.50
2022-10-02T10:33:42.431Z,98579.53
2022-10-02T10:37:16.740Z,98572.09
2022-10-02T10:40:26.463Z,98573.28
2022-10-02T10:43:54.382Z,98573.63
2022-10-02T10:46:43.760Z,98569.16
2022-10-02T10:50:02.243Z,98561.50
2022-10-02T10:52:57.456Z,98573.88
2022-10-02T10:55:49.842Z,98582.53
2022-10-02T10:58:30.109Z,98584.13
2022-10-02T11:01:14.512Z,98575.59
2022-10-02T11:04:47.229Z,98583.81
2022-10-02T11:07:39.426Z,98587.31
2022-10-02T11:10:24.044Z,98579.09
2022-10-02T11:13:05.754Z,98585.72
2022-10-02T11:16:14.972Z,98580.94
2022-10-02T11:19:09.941Z,98574.09
2022-10-02T11:22:13.358Z,98556.75
2022-10-02T11:25:24.924Z,98556.97
2022-10-02T11:28:23.766Z,98567.50
2022-10-02T11:31:08.630Z,98565.38
2022-10-02T11:34:20.497Z,98556.25
2022-10-02T11:37:05.749Z,98556.06
2022-10-02T11:40:18.130Z,98569.03
2022-10-02T11:43:44.046Z,98555.47
2022-10-02T11:46:36.590Z,98554.81
2022-10-02T11:49:49.870Z,98542.44
2022-10-02T11:52:48.397Z,98560.38
2022-10-02T11:55:38.961Z,98553.44
2022-10-02T11:58:23.713Z,98543.56
2022-10-02T12:01:07.357Z,98513.59
2022-10-02T12:03:52.965Z,98516.81
2022-10-02T12:06:42.743Z,98520.44
2022-10-02T12:09:28.484Z,98528.16
2022-10-02T12:12:14.893Z,98526.09
2022-10-02T12:14:53.201Z,98525.75
2022-10-02T12:18:05.729Z,98508.41
2022-10-02T12:21:09.985Z,98503.22
2022-10-02T12:24:08.703Z,98502.38
2022-10-02T12:27:00.397Z,98490.13
2022-10-02T12:29:56.561Z,98482.75
2022-10-02T12:32:56.305Z,98474.78
2022-10-02T12:35:45.363Z,98480.38
2022-10-02T12:38:28.696Z,98485.91
2022-10-02T12:41:11.167Z,98483.66
2022-10-02T12:44:29.850Z,98489.19
2022-10-02T12:47:33.621Z,98474.16
2022-10-02T12:50:21.905Z,98470.69
2022-10-02T12:53:38.796Z,98465.84
2022-10-02T12:56:45.794Z,98469.59
2022-10-02T12:59:29.375Z,98460.38
2022-10-02T13:03:02.023Z,98459.16
2022-10-02T13:06:21.765Z,98454.25
2022-10-02T13:09:07.992Z,98451.13
2022-10-02T13:12:02.489Z,98460.78
2022-10-02T13:15:03.447Z,98480.50
2022-10-02T13:17:46.292Z,98458.16
2022-10-02T13:20:29.337Z,98451.22
2022-10-02T13:23:18.589Z,98453.28
2022-10-02T13:26:06.780Z,98436.56
2022-10-02T13:28:58.263Z,98445.75
2022-10-02T13:31:47.756Z,98430.06
2022-10-02T13:34:41.477Z,98437.06
2022-10-02T13:37:34.286Z,98428.63
2022-10-02T13:40:25.592Z,98448.16
2022-10-02T13:43:25.121Z,98449.78
2022-10-02T13:46:03.933Z,98463.09
2022-10-02T13:48:46.951Z,98451.06
2022-10-02T13:51:25.098Z,98449.78
2022-10-02T13:54:37.254Z,98452.34
2022-10-02T13:57:21.432Z,98448.69
2022-10-02T14:00:06.127Z,98442.28
2022-10-02T14:03:06.652Z,98427.41
2022-10-02T14:05:45.063Z,98422.66
2022-10-02T14:08:33.401Z,98427.00
2022-10-02T14:11:17.364Z,98423.88
2022-10-02T14:14:06.126Z,98399.13
2022-10-02T14:16:54.069Z,98391.59
2022-10-02T14:19:52.909Z,98385.75
2022-10-02T14:22:47.646Z,98381.81
2022-10-02T14:25:43.867Z,98375.47
2022-10-02T14:28:58.743Z,98364.44
2022-10-02T14:32:02.751Z,98355.09
2022-10-02T14:35:19.222Z,98350.56
2022-10-02T14:38:11.481Z,98331.56
2022-10-02T14:40:53.742Z,98329.00
2022-10-02T14:44:28.632Z,98328.03
2022-10-02T14:47:15.597Z,98312.19
2022-10-02T14:50:23.583Z,98313.13
2022-10-02T14:53:36.956Z,98307.56
2022-10-02T14:57:01.664Z,98305.38
2022-10-02T15:00:05.421Z,98284.13
2022-10-02T15:03:23.464Z,98300.78
2022-10-02T15:06:17.477Z,98275.16
2022-10-02T15:08:53.956Z,98250.72
2022-10-02T15:11:53.207Z,98231.00
2022-10-02T15:14:43.937Z,98225.50
2022-10-02T15:17:42.196Z,98238.53
2022-10-02T15:20:27.858Z,98232.53
2022-10-02T15:23:06.874Z,98229.28
2022-10-02T15:26:05.157Z,98230.31
2022-10-02T15:28:50.930Z,98240.19
2022-10-02T15:31:37.059Z,98258.13
2022-10-02T15:34:22.749Z,98254.16
2022-10-02T15:37:12.058Z,98248.91
2022-10-02T15:40:24.785Z,98249.91
2022-10-02T15:42:58.677Z,98248.00
2022-10-02T15:45:45.481Z,98243.25
2022-10-02T15:48:43.578Z,98247.56
2022-10-02T15:51:37.633Z,98240.38
2022-10-02T15:54:20.556Z,98237.00
2022-10-02T15:57:08.091Z,98245.91
2022-10-02T16:00:10.570Z,98249.69
2022-10-02T16:03:13.109Z,98265.09
2022-10-02T16:05:56.661Z,98263.78
2022-10-02T16:09:14.132Z,98278.72
2022-10-02T16:12:05.480Z,98280.91
2022-10-02T16:14:50.256Z,98303.28
2022-10-02T16:17:54.010Z,98316.41
2022-10-02T16:21:34.528Z,98329.13
2022-10-02T16:24:36.100Z,98337.03
2022-10-02T16:27:31.754Z,98334.09
2022-10-02T16:30:13.646Z,98344.28
2022-10-02T16:33:23.099Z,98353.28
2022-10-02T16:36:44.552Z,98358.59
2022-10-02T16:39:39.621Z,98364.00
2022-10-02T16:43:00.908Z,98376.13
2022-10-02T16:46:05.962Z,98379.41
2022-10-02T16:48:59.472Z,98393.22
2022-10-02T16:51:49.770Z,98399.44
2022-10-02T16:54:58.813Z,98405.09
2022-10-02T16:58:13.768Z,98406.47
2022-10-02T17:01:01.396Z,98396.81
2022-10-02T17:16:45.692Z,98361.00
2022-10-02T17:19:34.498Z,98356.31
2022-10-02T17:22:11.227Z,98344.22
2022-10-02T17:24:52.146Z,98334.66
2022-10-02T17:27:42.755Z,98323.19
2022-10-02T17:30:24.324Z,98325.41
2022-10-02T17:33:16.879Z,98333.84
2022-10-02T17:35:56.750Z,98339.84
2022-10-02T17:39:18.148Z,98335.84
2022-10-02T17:42:08.810Z,98340.63
2022-10-02T17:45:15.125Z,98347.78
2022-10-02T17:48:19.874Z,98357.34
2022-10-02T17:55:02.104Z,98375.19
2022-10-02T17:57:46.565Z,98381.91
2022-10-02T18:00:43.303Z,98390.03
2022-10-02T18:03:51.530Z,98391.63
2022-10-02T18:06:36.068Z,98393.66
2022-10-02T18:09:33.570Z,98396.41
2022-10-02T18:12:33.632Z,98410.00
2022-10-02T18:15:44.599Z,98407.72
2022-10-02T18:18:30.788Z,98410.19
2022-10-02T18:21:29.500Z,98406.81
2022-10-02T18:24:21.272Z,98401.25
2022-10-02T18:27:09.981Z,98404.72
2022-10-02T18:30:03.504Z,98386.88
2022-10-02T18:33:10.251Z,98385.34
2022-10-02T18:36:25.133Z,98385.44
2022-10-02T18:39:20.522Z,98383.94
2022-10-02T18:42:45.884Z,98385.97
2022-10-02T18:45:39.206Z,98371.31
2022-10-02T18:48:29.434Z,98366.97
2022-10-02T18:51:20.970Z,98352.91
2022-10-02T18:54:11.621Z,98336.38
2022-10-02T18:57:23.395Z,98320.56
2022-10-02T19:00:04.614Z,98323.41
2022-10-02T19:02:57.623Z,98322.53
2022-10-02T19:05:33.552Z,98322.16
2022-10-02T19:08:22.047Z,98322.69
2022-10-02T19:10:52.422Z,98333.13
2022-10-02T19:13:30.000Z,98339.66
2022-10-02T19:16:01.241Z,98344.22
2022-10-02T19:18:32.997Z,98354.25
2022-10-02T19:21:10.782Z,98347.94
2022-10-02T19:23:49.986Z,98354.75
2022-10-02T19:26:24.128Z,98343.06
2022-10-02T19:28:59.100Z,98354.38
2022-10-02T19:31:32.458Z,98362.38
2022-10-02T19:34:06.978Z,98366.34
2022-10-02T19:36:42.009Z,98354.38
2022-10-02T19:39:21.246Z,98352.78
2022-10-02T19:41:55.116Z,98354.91
2022-10-02T19:44:28.918Z,98357.16
2022-10-02T19:47:03.332Z,98358.31
2022-10-02T19:49:38.474Z,98354.38
2022-10-02T19:52:43.675Z,98364.19
2022-10-02T19:55:25.177Z,98360.91
2022-10-02T19:58:02.713Z,98357.00
2022-10-02T20:00:35.359Z,98360.78
2022-10-02T20:03:15.145Z,98364.97
2022-10-02T20:05:45.301Z,98363.47
2022-10-02T20:08:18.792Z,98360.28
2022-10-02T20:11:03.182Z,98363.47
2022-10-02T20:13:38.512Z,98367.44
2022-10-02T20:16:33.829Z,98365.19
2022-10-02T20:19:05.621Z,98364.34
2022-10-02T20:21:39.744Z,98366.13
2022-10-02T20:24:26.442Z,98367.72
2022-10-02T20:27:04.109Z,98366.44
2022-10-02T20:29:43.471Z,98374.84
2022-10-02T20:32:21.779Z,98377.94
2022-10-02T20:34:56.421Z,98377.28
2022-10-02T20:37:35.031Z,98388.50
2022-10-02T20:40:13.389Z,98386.25
2022-10-02T20:42:53.413Z,98391.91
2022-10-02T20:45:30.473Z,98382.19
2022-10-02T20:49:08.810Z,98394.03
2022-10-02T20:52:01.966Z,98402.91
2022-10-02T20:54:54.210Z,98407.09
2022-10-02T20:58:16.987Z,98409.69
2022-10-02T21:01:09.352Z,98405.75
2022-10-02T21:04:34.055Z,98409.81
2022-10-02T21:07:37.444Z,98394.47
2022-10-02T21:11:02.967Z,98381.75
2022-10-02T21:14:22.952Z,98376.91
2022-10-02T21:17:51.397Z,98375.53
2022-10-02T21:20:59.052Z,98381.00
2022-10-02T21:24:14.291Z,98369.06
2022-10-02T21:27:03.577Z,98373.03
2022-10-02T21:30:12.855Z,98370.59
2022-10-02T21:32:59.585Z,98377.75
2022-10-02T21:35:41.040Z,98384.31
2022-10-02T21:38:38.200Z,98398.22
2022-10-02T21:42:08.714Z,98386.56
2022-10-02T21:45:43.251Z,98369.63
2022-10-02T21:48:55.809Z,98366.22
2022-10-02T21:52:26.479Z,98388.69
2022-10-02T21:56:01.660Z,98386.28
2022-10-02T21:59:06.379Z,98396.25
2022-10-02T22:02:36.388Z,98390.03
2022-10-02T22:05:48.633Z,98388.38
2022-10-02T22:08:31.464Z,98395.00
2022-10-02T22:11:12.344Z,98401.63
2022-10-02T22:13:43.910Z,98409.81
2022-10-02T22:16:28.149Z,98402.63
2022-10-02T22:19:05.983Z,98404.19
2022-10-02T22:21:57.911Z,98405.84
2022-10-02T22:25:00.405Z,98414.97
2022-10-02T22:28:04.018Z,98402.63
2022-10-02T22:30:45.626Z,98409.22
2022-10-02T22:33:31.971Z,98421.72
2022-10-02T22:36:39.154Z,98426.22
2022-10-02T22:39:16.125Z,98411.34
2022-10-02T22:41:57.651Z,98414.19
2022-10-02T22:44:35.255Z,98413.84
2022-10-02T22:47:12.544Z,98414.31
2022-10-02T22:49:48.414Z,98403.03
2022-10-02T22:52:25.483Z,98406.28
2022-10-02T22:55:04.922Z,98406.41
2022-10-02T22:57:42.273Z,98408.16
2022-10-02T23:00:19.077Z,98413.78
2022-10-02T23:02:58.097Z,98419.41
2022-10-02T23:05:34.114Z,98416.16
2022-10-02T23:08:17.144Z,98423.44
2022-10-02T23:10:51.449Z,98418.00
2022-10-02T23:13:29.073Z,98428.50
2022-10-02T23:16:06.247Z,98435.81
2022-10-02T23:18:44.186Z,98436.75
2022-10-02T23:21:43.202Z,98435.94
2022-10-02T23:24:28.587Z,98442.34
2022-10-02T23:27:12.051Z,98440.84
2022-10-02T23:29:55.186Z,98440.16
2022-10-02T23:32:31.565Z,98447.47
2022-10-02T23:35:12.902Z,98444.97
2022-10-02T23:37:52.377Z,98446.03
2022-10-02T23:40:43.884Z,98441.75
2022-10-02T23:43:15.900Z,98446.56
2022-10-02T23:45:57.963Z,98437.38
2022-10-02T23:48:30.154Z,98445.13
2022-10-02T23:51:15.996Z,98449.91
2022-10-02T23:54:12.311Z,98458.00
2022-10-02T23:57:09.832Z,98445.94
2022-10-02T23:59:58.741Z,98455.22
